Bushnell, South Dakota
Current Conditions -  °F | °C
As of 8:54 PM on Wednesday 26 Nov 2014 (Local Time) from KCNB Reporting Station
Broken Clouds Broken Clouds  
Wind Chill: -11°   Ceiling: 8000
Heat Index:   Visibility: 10mi
Dew Point: -3°   Wind: 10mph
Humidity: 71%   Direction: 330°NNW
Pressure: 30.47"   Gusts: 20mph
Location:  44.4253°N, 96.5963°W
Report Text: KCNB 270254Z AUTO 33009G17KT 10SM BKN080 M15/M20 A3047 RMK AO2 T11551196
Loading
Personal Weather Stations






























Interactive Weather Map New forecast layout! Learn more

10-Day Weather Forecast

Advertisements
Track Severe Weather on mobile